Time;durP1;ratioP1;P1;durP2;ratioP2;P2;SDS_P1;SDS_P2;PMS_P1;PMS_P2;Temp;Humidity;BMP_temperature;BMP_pressure;BME280_temperature;BME280_humidity;BME280_pressure;Samples;Min_cycle;Max_cycle;Signal;HPM_P1;HPM_P2
2022/11/25 00:00:04;;;;;;;6.83;2.20;;;;;;;5.94;89.93;100330.47;5014367;28;20209;-79
2022/11/25 00:02:30;;;;;;;4.67;2.97;;;;;;;5.92;89.80;100327.03;5014605;28;20798;-78
2022/11/25 00:04:56;;;;;;;3.03;2.17;;;;;;;5.88;89.03;100322.72;5014153;28;20693;-79
2022/11/25 00:07:23;;;;;;;4.60;2.10;;;;;;;5.91;89.75;100327.91;5014043;28;20688;-79
2022/11/25 00:09:49;;;;;;;3.63;2.00;;;;;;;5.89;89.30;100327.06;5013497;28;20210;-79
2022/11/25 00:12:16;;;;;;;5.33;2.10;;;;;;;5.88;88.92;100330.50;5014654;28;20207;-79
2022/11/25 00:14:42;;;;;;;5.10;2.03;;;;;;;5.86;89.43;100322.72;5014154;28;20270;-78
2022/11/25 00:17:10;;;;;;;2.93;1.50;;;;;;;5.93;89.83;100315.81;5014333;28;20205;-81
2022/11/25 00:19:36;;;;;;;4.80;2.27;;;;;;;5.89;89.48;100320.13;5013588;28;20209;-79
2022/11/25 00:22:03;;;;;;;4.57;2.17;;;;;;;5.87;90.08;100315.84;5013759;28;20657;-78
2022/11/25 00:24:29;;;;;;;2.53;1.90;;;;;;;5.85;89.13;100314.97;5014443;28;20712;-81
2022/11/25 00:26:55;;;;;;;5.13;2.43;;;;;;;5.81;89.36;100328.75;5014138;28;20206;-80
2022/11/25 00:29:22;;;;;;;5.87;2.00;;;;;;;5.75;89.09;100338.28;5013575;28;20220;-79
2022/11/25 00:31:48;;;;;;;3.17;2.07;;;;;;;5.70;89.15;100321.03;5013681;28;20226;-78
2022/11/25 00:34:16;;;;;;;4.40;2.23;;;;;;;5.63;88.94;100309.81;5013601;28;20205;-78
2022/11/25 00:36:43;;;;;;;5.07;2.20;;;;;;;5.64;89.32;100319.28;5013378;28;20231;-79
2022/11/25 00:39:12;;;;;;;2.80;2.33;;;;;;;5.69;89.62;100308.91;5013645;28;20214;-78
2022/11/25 00:44:35;;;;;;;3.93;2.17;;;;;;;5.52;90.56;100288.25;5014399;28;20249;-80
2022/11/25 00:47:03;;;;;;;2.93;2.03;;;;;;;5.43;91.14;100239.94;5013811;28;20233;-79
2022/11/25 00:49:31;;;;;;;7.00;2.43;;;;;;;5.44;91.77;100226.13;5013593;28;20653;-78
2022/11/25 00:51:58;;;;;;;8.30;2.60;;;;;;;5.46;91.31;100219.22;5013461;28;20738;-78
2022/11/25 00:54:25;;;;;;;4.03;2.10;;;;;;;5.51;91.69;100219.19;5013845;28;20210;-79
2022/11/25 00:56:52;;;;;;;6.33;2.17;;;;;;;5.55;91.23;100233.88;5014000;28;20214;-78
2022/11/25 00:59:18;;;;;;;3.37;2.10;;;;;;;5.60;91.37;100231.28;5013893;28;20213;-78
2022/11/25 01:01:45;;;;;;;6.83;2.93;;;;;;;5.58;90.92;100246.81;5013713;28;20242;-78
2022/11/25 01:04:11;;;;;;;3.60;2.40;;;;;;;5.54;90.80;100248.53;5014324;28;20580;-78
2022/11/25 01:06:39;;;;;;;6.00;2.13;;;;;;;5.50;90.24;100253.72;5014149;28;20214;-79
2022/11/25 01:09:07;;;;;;;6.97;2.30;;;;;;;5.49;90.85;100259.75;5014339;28;20213;-78
2022/11/25 01:11:33;;;;;;;5.07;2.57;;;;;;;5.47;90.95;100259.78;5013926;28;20232;-78
2022/11/25 01:14:00;;;;;;;6.47;3.97;;;;;;;5.41;91.36;100245.97;5012772;28;20202;-79
2022/11/25 01:16:27;;;;;;;4.77;2.37;;;;;;;5.41;92.33;100236.50;5013742;28;20233;-78
2022/11/25 01:18:53;;;;;;;3.30;2.20;;;;;;;5.45;91.96;100238.22;5013811;28;20214;-80
2022/11/25 01:21:22;;;;;;;4.83;2.60;;;;;;;5.42;92.40;100201.09;5015155;28;20234;-79
2022/11/25 01:23:50;;;;;;;7.50;2.30;;;;;;;5.45;92.65;100193.31;5017746;28;20209;-78
2022/11/25 01:26:18;;;;;;;6.93;3.17;;;;;;;5.48;93.24;100188.16;5017256;28;20206;-78
2022/11/25 01:28:45;;;;;;;6.27;2.13;;;;;;;5.53;92.58;100184.69;5017176;28;20216;-78
2022/11/25 01:31:14;;;;;;;6.53;1.80;;;;;;;5.63;93.79;100174.28;5016805;28;20228;-79
2022/11/25 01:33:42;;;;;;;6.37;2.30;;;;;;;5.71;93.21;100164.78;5016743;28;20596;-78
2022/11/25 01:36:11;;;;;;;5.00;1.90;;;;;;;5.76;92.70;100189.78;5017140;28;20753;-78
2022/11/25 01:38:37;;;;;;;7.77;1.93;;;;;;;5.76;92.96;100197.56;5016928;28;20213;-78
2022/11/25 01:41:06;;;;;;;6.00;2.10;;;;;;;5.80;92.07;100205.31;5016819;28;20231;-78
2022/11/25 01:43:33;;;;;;;9.47;2.63;;;;;;;5.84;91.63;100212.22;5017052;28;20208;-80
2022/11/25 01:46:07;;;;;;;6.60;1.87;;;;;;;5.74;90.99;100240.72;5016551;28;20221;-78
2022/11/25 01:48:39;;;;;;;4.17;1.60;;;;;;;5.54;91.47;100243.34;5017070;28;20210;-79
2022/11/25 01:51:13;;;;;;;8.57;2.10;;;;;;;5.50;92.10;100240.78;5016623;28;20790;-78
2022/11/25 01:53:40;;;;;;;4.30;1.60;;;;;;;5.44;92.12;100228.72;5015635;28;20301;-79
2022/11/25 01:56:08;;;;;;;5.50;1.87;;;;;;;5.52;91.96;100218.34;5016990;28;20317;-78
2022/11/25 01:58:37;;;;;;;5.23;2.00;;;;;;;5.53;92.63;100209.69;5015979;28;20650;-78
2022/11/25 02:01:04;;;;;;;7.40;1.70;;;;;;;5.44;92.96;100214.91;5016623;28;20828;-79
2022/11/25 02:03:34;;;;;;;4.23;1.87;;;;;;;5.38;93.73;100188.16;5016408;28;20293;-78
2022/11/25 02:06:09;;;;;;;3.47;1.93;;;;;;;5.40;93.71;100161.44;5016511;28;20305;-79
2022/11/25 02:08:36;;;;;;;3.60;2.17;;;;;;;5.38;94.38;100148.47;5016402;28;20301;-78
2022/11/25 02:11:03;;;;;;;3.40;1.70;;;;;;;5.45;95.01;100126.91;5015916;28;20260;-79
2022/11/25 02:13:33;;;;;;;5.50;1.63;;;;;;;5.48;95.34;100126.03;5015758;28;20213;-78
2022/11/25 02:15:59;;;;;;;3.87;2.10;;;;;;;5.54;94.87;100126.84;5016205;28;20316;-80
2022/11/25 02:18:27;;;;;;;4.90;2.13;;;;;;;5.69;94.66;100141.50;5016623;28;20764;-78
2022/11/25 02:20:53;;;;;;;5.13;2.10;;;;;;;5.78;94.09;100151.78;5016400;28;20665;-79
2022/11/25 02:23:33;;;;;;;5.17;2.03;;;;;;;5.77;94.02;100152.69;5015452;28;20586;-79
2022/11/25 02:26:01;;;;;;;9.53;2.30;;;;;;;5.77;93.53;100163.03;5015862;28;20645;-79
2022/11/25 02:28:29;;;;;;;3.63;1.70;;;;;;;5.81;92.98;100161.28;5015969;28;20249;-79
2022/11/25 02:30:57;;;;;;;7.90;2.37;;;;;;;5.75;93.10;100161.31;5015507;28;20229;-78
2022/11/25 02:33:24;;;;;;;7.10;2.60;;;;;;;5.78;93.67;100172.50;5014886;28;20207;-78
2022/11/25 02:35:54;;;;;;;6.93;2.00;;;;;;;5.81;92.73;100175.94;5015413;28;20651;-79
2022/11/25 02:38:24;;;;;;;6.87;2.60;;;;;;;5.83;93.02;100169.03;5015465;28;20214;-79
2022/11/25 02:40:57;;;;;;;3.87;1.60;;;;;;;5.78;93.39;100182.00;5014968;28;20226;-80
2022/11/25 02:43:26;;;;;;;5.67;2.40;;;;;;;5.72;92.62;100195.84;5015293;28;20212;-80
2022/11/25 02:45:57;;;;;;;6.23;1.90;;;;;;;5.71;93.48;100172.56;5015386;28;20214;-79
2022/11/25 02:48:25;;;;;;;9.57;2.63;;;;;;;5.72;93.15;100174.28;5015110;28;20676;-79
2022/11/25 02:50:52;;;;;;;6.53;2.10;;;;;;;5.75;92.64;100172.53;5014677;28;20245;-80
2022/11/25 02:53:19;;;;;;;5.43;2.17;;;;;;;5.68;92.73;100176.00;5014436;28;20205;-79
2022/11/25 02:55:46;;;;;;;6.83;2.27;;;;;;;5.66;93.26;100175.16;5015120;28;20227;-81
2022/11/25 02:58:13;;;;;;;4.23;2.30;;;;;;;5.73;92.99;100179.44;5015575;28;20207;-79
2022/11/25 03:00:42;;;;;;;7.70;2.50;;;;;;;5.65;92.41;100178.63;5014992;28;20230;-78
2022/11/25 03:03:08;;;;;;;5.47;2.57;;;;;;;5.72;92.74;100169.94;5014705;28;20210;-80
2022/11/25 03:05:35;;;;;;;9.47;2.57;;;;;;;5.73;93.26;100168.25;5014765;28;20226;-80
2022/11/25 03:08:01;;;;;;;5.07;1.90;;;;;;;5.71;92.61;100178.59;5014712;28;20215;-79
2022/11/25 03:10:28;;;;;;;5.20;2.37;;;;;;;5.69;92.50;100188.09;5014712;28;20237;-79
2022/11/25 03:12:54;;;;;;;6.90;2.47;;;;;;;5.70;92.34;100197.56;5014989;28;20242;-78
2022/11/25 03:15:21;;;;;;;4.17;1.73;;;;;;;5.65;91.53;100217.47;5014776;28;20264;-78
2022/11/25 03:17:49;;;;;;;7.90;2.03;;;;;;;5.61;92.04;100215.75;5014479;28;20236;-79
2022/11/25 03:20:16;;;;;;;6.73;2.33;;;;;;;5.59;93.72;100178.63;5014817;28;20225;-80
2022/11/25 03:22:43;;;;;;;6.10;2.07;;;;;;;5.61;93.07;100170.84;5014626;28;20210;-79
2022/11/25 03:25:10;;;;;;;7.30;2.83;;;;;;;5.62;94.19;100159.63;5014789;28;20200;-79
2022/11/25 03:27:38;;;;;;;9.17;2.57;;;;;;;5.69;94.33;100151.84;5014382;28;20696;-78
2022/11/25 03:30:06;;;;;;;6.40;2.70;;;;;;;5.77;93.94;100138.88;5014427;28;20210;-79
2022/11/25 03:32:33;;;;;;;5.90;2.33;;;;;;;5.79;94.00;100144.91;5014621;28;20222;-79
2022/11/25 03:35:01;;;;;;;7.33;3.70;;;;;;;5.80;93.84;100146.59;5014326;28;20199;-79
2022/11/25 03:37:27;;;;;;;5.13;2.63;;;;;;;5.79;93.74;100142.31;5014649;28;20756;-79
2022/11/25 03:39:54;;;;;;;9.20;2.23;;;;;;;5.69;94.19;100138.00;5014546;28;20206;-78
2022/11/25 03:42:20;;;;;;;6.40;2.40;;;;;;;5.80;94.15;100140.56;5015221;28;20207;-79
2022/11/25 03:44:47;;;;;;;7.17;2.40;;;;;;;5.70;93.88;100140.59;5013483;28;20203;-79
2022/11/25 03:47:13;;;;;;;8.27;3.13;;;;;;;5.74;94.72;100137.13;5014579;28;20211;-79
2022/11/25 03:49:39;;;;;;;5.73;2.10;;;;;;;5.78;93.98;100145.75;5014275;28;20211;-80
2022/11/25 03:52:07;;;;;;;5.30;1.73;;;;;;;5.84;94.15;100144.88;5013758;28;20238;-79
2022/11/25 03:54:34;;;;;;;6.27;2.57;;;;;;;5.82;93.79;100144.88;5014045;28;20627;-80
2022/11/25 03:57:00;;;;;;;7.83;2.00;;;;;;;5.85;93.76;100149.19;5013949;28;20243;-79
2022/11/25 03:59:27;;;;;;;5.10;2.90;;;;;;;5.89;93.02;100153.50;5013592;28;20268;-79
2022/11/25 04:01:53;;;;;;;5.93;2.60;;;;;;;5.91;92.79;100162.13;5013632;28;20243;-79
2022/11/25 04:04:19;;;;;;;6.50;2.20;;;;;;;6.00;92.28;100172.47;5014101;28;20218;-79
2022/11/25 04:06:46;;;;;;;6.00;2.47;;;;;;;6.00;91.90;100179.38;5013565;28;20221;-79
2022/11/25 04:09:14;;;;;;;5.93;1.97;;;;;;;6.08;91.51;100187.97;5013948;28;20211;-79
2022/11/25 04:14:24;;;;;;;7.00;2.47;;;;;;;6.06;91.60;100205.25;5013493;28;20231;-80
2022/11/25 04:16:51;;;;;;;6.20;2.63;;;;;;;6.01;91.43;100212.19;5013641;28;20714;-80
2022/11/25 04:19:17;;;;;;;5.60;1.97;;;;;;;6.07;91.72;100214.78;5013585;28;20216;-79
2022/11/25 04:21:44;;;;;;;5.63;2.43;;;;;;;6.13;91.68;100225.09;5013619;28;20233;-78
2022/11/25 04:24:10;;;;;;;7.53;2.53;;;;;;;6.20;91.15;100231.97;5013492;28;20212;-79
2022/11/25 04:26:38;;;;;;;8.13;3.03;;;;;;;6.12;92.14;100241.50;5013879;28;20203;-79
2022/11/25 04:29:05;;;;;;;8.07;2.60;;;;;;;6.17;91.99;100229.41;5013558;28;20206;-79
2022/11/25 04:31:31;;;;;;;4.37;2.13;;;;;;;6.29;91.28;100233.66;5013886;28;20317;-79
2022/11/25 04:33:58;;;;;;;4.90;2.40;;;;;;;6.24;90.16;100256.16;5013874;28;20206;-79
2022/11/25 04:36:24;;;;;;;7.13;2.17;;;;;;;6.13;90.66;100259.66;5013619;28;20345;-79
2022/11/25 04:38:51;;;;;;;7.43;2.47;;;;;;;6.10;91.79;100241.50;5013206;28;20214;-79
2022/11/25 04:41:18;;;;;;;5.53;2.13;;;;;;;6.10;91.76;100241.50;5013773;28;20231;-79
2022/11/25 04:43:45;;;;;;;5.13;1.90;;;;;;;6.14;91.03;100239.78;5013558;28;20210;-79
2022/11/25 04:46:16;;;;;;;3.77;2.00;;;;;;;6.15;90.45;100238.91;5013293;28;20665;-79
2022/11/25 04:48:42;;;;;;;8.20;2.40;;;;;;;6.15;90.14;100262.25;5013757;28;20217;-78
2022/11/25 04:51:09;;;;;;;6.03;2.57;;;;;;;6.08;90.00;100265.72;5012705;28;20241;-79
2022/11/25 04:53:35;;;;;;;3.33;1.53;;;;;;;6.05;90.33;100263.16;5013661;28;20206;-79
2022/11/25 04:56:01;;;;;;;4.00;1.67;;;;;;;6.02;90.29;100264.00;5013965;28;20245;-79
2022/11/25 05:01:13;;;;;;;5.20;2.30;;;;;;;5.92;90.96;100241.53;5017460;28;20231;-79
2022/11/25 05:03:40;;;;;;;4.60;2.03;;;;;;;5.89;91.44;100245.00;5016969;28;20207;-79
2022/11/25 05:06:07;;;;;;;5.33;2.37;;;;;;;5.92;90.77;100233.78;5017074;28;20561;-79
2022/11/25 05:08:34;;;;;;;4.63;2.07;;;;;;;5.96;90.96;100236.38;5017358;28;20203;-79
2022/11/25 05:11:00;;;;;;;5.30;2.53;;;;;;;5.91;91.24;100232.91;5016767;28;20230;-79
2022/11/25 05:13:27;;;;;;;8.17;2.57;;;;;;;6.00;90.73;100229.47;5017279;28;20204;-81
2022/11/25 05:15:53;;;;;;;7.33;2.73;;;;;;;5.98;91.17;100215.66;5017327;28;20807;-81
2022/11/25 05:18:21;;;;;;;3.63;2.37;;;;;;;6.04;91.40;100217.34;5017813;28;20688;-82
2022/11/25 05:20:47;;;;;;;7.10;2.53;;;;;;;6.03;91.75;100202.69;5017741;28;20228;-79
2022/11/25 05:23:14;;;;;;;7.77;2.33;;;;;;;6.00;92.02;100206.13;5018245;28;20221;-82
2022/11/25 05:25:40;;;;;;;7.80;2.90;;;;;;;6.05;90.83;100208.72;5017996;28;20206;-82
2022/11/25 05:28:07;;;;;;;5.10;1.90;;;;;;;6.06;91.04;100216.47;5018307;28;20210;-82
2022/11/25 05:30:33;;;;;;;6.77;2.10;;;;;;;6.08;91.41;100232.88;5017737;28;20229;-82
2022/11/25 05:33:00;;;;;;;5.80;2.57;;;;;;;5.95;91.47;100232.06;5017793;28;20216;-82
2022/11/25 05:35:27;;;;;;;7.93;3.20;;;;;;;6.03;92.01;100203.53;5018006;28;20218;-78
2022/11/25 05:37:54;;;;;;;5.80;2.80;;;;;;;5.84;92.58;100187.16;5018011;28;20212;-79
2022/11/25 05:40:20;;;;;;;4.87;2.57;;;;;;;6.00;93.28;100171.59;5017506;28;20233;-79
2022/11/25 05:42:47;;;;;;;7.00;2.33;;;;;;;6.02;92.60;100172.47;5017376;28;20213;-79
2022/11/25 05:45:13;;;;;;;10.17;3.13;;;;;;;6.06;92.46;100171.56;5018100;28;20212;-79
2022/11/25 05:47:39;;;;;;;4.37;2.27;;;;;;;6.10;92.58;100171.53;5017519;28;20207;-79
2022/11/25 05:50:07;;;;;;;4.80;2.43;;;;;;;6.16;91.77;100175.84;5017339;28;20217;-81
2022/11/25 05:52:35;;;;;;;9.13;2.90;;;;;;;6.09;92.82;100180.19;5078663;22;20374;-81
2022/11/25 05:55:02;;;;;;;5.53;2.67;;;;;;;6.09;93.20;100166.38;5057213;28;20212;-82
2022/11/25 05:57:28;;;;;;;4.63;2.20;;;;;;;6.13;93.13;100149.94;5057176;28;20236;-82
2022/11/25 05:59:55;;;;;;;11.17;2.80;;;;;;;6.26;92.53;100154.19;5057575;28;20229;-79
2022/11/25 06:02:21;;;;;;;6.43;2.30;;;;;;;6.24;92.41;100162.84;5042624;28;20297;-78
2022/11/25 06:04:47;;;;;;;4.33;2.23;;;;;;;6.23;91.86;100172.34;5037686;28;20697;-79
2022/11/25 06:07:15;;;;;;;11.03;2.33;;;;;;;6.15;92.61;100184.50;5036766;28;20215;-81
2022/11/25 06:09:43;;;;;;;5.93;2.70;;;;;;;6.22;93.28;100169.75;5036533;28;20212;-80
2022/11/25 06:12:09;;;;;;;4.87;2.20;;;;;;;6.32;93.61;100156.75;5036988;28;20738;-79
2022/11/25 06:14:35;;;;;;;6.63;2.23;;;;;;;6.39;92.39;100165.34;5037023;28;20224;-79
2022/11/25 06:17:03;;;;;;;10.17;3.03;;;;;;;6.45;91.94;100180.00;5037288;28;20243;-79
2022/11/25 06:19:29;;;;;;;7.70;2.10;;;;;;;6.50;91.61;100206.75;5037327;28;20584;-82
2022/11/25 06:21:56;;;;;;;5.30;2.40;;;;;;;6.60;91.42;100212.75;5037289;28;20226;-82
2022/11/25 06:24:23;;;;;;;5.40;2.30;;;;;;;6.67;90.63;100217.88;5038056;28;20229;-79
2022/11/25 06:26:50;;;;;;;4.23;2.03;;;;;;;6.59;91.06;100236.97;5037907;28;20213;-79
2022/11/25 06:29:17;;;;;;;7.40;2.60;;;;;;;6.59;91.35;100229.19;5037485;28;20219;-81
2022/11/25 06:31:43;;;;;;;5.63;2.70;;;;;;;6.57;91.29;100227.44;5037088;28;20229;-81
2022/11/25 06:34:10;;;;;;;4.67;2.30;;;;;;;6.64;91.01;100214.44;5037633;28;20579;-79
2022/11/25 06:36:36;;;;;;;6.07;2.33;;;;;;;6.62;91.12;100218.78;5037255;28;20661;-79
2022/11/25 06:39:02;;;;;;;5.03;2.33;;;;;;;6.65;91.17;100223.97;5037473;28;20559;-82
2022/11/25 06:41:29;;;;;;;7.80;3.10;;;;;;;6.73;91.32;100216.97;5037412;28;20637;-79
2022/11/25 06:43:57;;;;;;;5.67;2.73;;;;;;;6.74;92.00;100214.38;5037116;28;20210;-78
2022/11/25 06:46:23;;;;;;;6.00;2.30;;;;;;;6.71;91.23;100214.41;5037340;28;20291;-79
2022/11/25 06:48:49;;;;;;;5.73;2.53;;;;;;;6.76;91.73;100211.78;5036984;28;20571;-79
2022/11/25 06:51:16;;;;;;;6.27;2.17;;;;;;;6.79;92.07;100211.75;5036275;28;20728;-79
2022/11/25 06:53:43;;;;;;;7.77;2.70;;;;;;;6.79;91.22;100209.16;5037136;28;20206;-81
2022/11/25 06:56:13;;;;;;;6.83;2.40;;;;;;;6.82;91.08;100213.44;5037202;28;20225;-81
2022/11/25 06:58:41;;;;;;;5.27;2.30;;;;;;;6.92;90.95;100228.97;5036838;28;20558;-81
2022/11/25 07:01:13;;;;;;;7.57;2.37;;;;;;;6.92;90.68;100238.47;5036703;28;20293;-82
2022/11/25 07:03:40;;;;;;;6.03;2.33;;;;;;;7.01;91.19;100220.22;5035815;28;20206;-81
2022/11/25 07:06:07;;;;;;;4.53;2.13;;;;;;;6.99;91.40;100224.56;5037260;28;20572;-81
2022/11/25 07:08:33;;;;;;;8.80;2.43;;;;;;;7.05;91.05;100239.25;5037796;28;20584;-82
2022/11/25 07:11:03;;;;;;;13.17;3.10;;;;;;;7.02;91.28;100232.34;5037092;28;20238;-80
2022/11/25 07:13:30;;;;;;;8.63;2.30;;;;;;;7.10;91.83;100237.47;5038762;28;20236;-79
2022/11/25 07:15:59;;;;;;;7.87;2.20;;;;;;;7.12;90.83;100235.72;5037799;28;20217;-79
2022/11/25 07:18:29;;;;;;;5.97;2.27;;;;;;;7.20;90.42;100236.53;5037423;28;20214;-79
2022/11/25 07:20:55;;;;;;;8.23;2.57;;;;;;;7.20;91.18;100239.13;5036868;28;20608;-82
2022/11/25 07:23:22;;;;;;;5.13;1.97;;;;;;;7.13;91.63;100243.47;5037570;28;20213;-80
2022/11/25 07:25:48;;;;;;;7.27;2.87;;;;;;;7.15;91.47;100259.06;5038561;28;20676;-81
2022/11/25 07:28:15;;;;;;;4.53;1.97;;;;;;;7.22;91.52;100252.94;5038088;28;20268;-82
2022/11/25 07:30:41;;;;;;;8.90;2.77;;;;;;;7.17;91.33;100259.91;5037666;28;20213;-81
2022/11/25 07:33:08;;;;;;;7.47;2.60;;;;;;;7.19;90.99;100271.13;5036690;28;20210;-80
2022/11/25 07:35:35;;;;;;;5.97;2.30;;;;;;;7.17;91.34;100272.88;5037643;28;20216;-80
2022/11/25 07:38:02;;;;;;;5.50;2.17;;;;;;;7.32;91.31;100262.38;5037760;28;20222;-79
2022/11/25 07:40:28;;;;;;;6.37;2.17;;;;;;;7.32;91.65;100274.50;5037474;28;20217;-80
2022/11/25 07:42:55;;;;;;;6.20;1.80;;;;;;;7.36;91.87;100274.47;5036540;28;20233;-79
2022/11/25 07:45:23;;;;;;;5.32;2.20;;;;;;;7.27;92.39;100268.47;5036936;28;20442;-80
2022/11/25 07:47:49;;;;;;;7.33;2.27;;;;;;;7.24;93.38;100240.81;5037290;28;20209;-79
2022/11/25 07:50:16;;;;;;;6.93;2.33;;;;;;;7.28;94.18;100236.47;5036812;28;20581;-80
2022/11/25 07:52:43;;;;;;;8.03;2.73;;;;;;;7.19;95.83;100195.84;5035802;28;20415;-79
2022/11/25 07:55:10;;;;;;;4.33;2.23;;;;;;;7.24;96.13;100167.28;5036407;28;20202;-80
2022/11/25 07:57:36;;;;;;;5.27;2.00;;;;;;;7.29;95.88;100157.69;5036840;28;20229;-80
2022/11/25 08:00:05;;;;;;;5.40;2.37;;;;;;;7.29;97.08;100147.31;5036130;28;20206;-81
2022/11/25 08:02:31;;;;;;;4.87;2.17;;;;;;;7.19;97.46;100140.50;5037413;28;20229;-80
2022/11/25 08:04:57;;;;;;;5.30;2.10;;;;;;;7.21;97.78;100120.56;5038091;28;20221;-79
2022/11/25 08:07:24;;;;;;;4.97;2.33;;;;;;;7.24;97.80;100120.56;5037609;28;20691;-79
2022/11/25 08:09:52;;;;;;;10.00;3.73;;;;;;;7.33;97.72;100125.63;5038583;28;20579;-78
2022/11/25 08:12:18;;;;;;;5.83;2.53;;;;;;;7.42;97.73;100127.28;5039112;28;20240;-80
2022/11/25 08:14:44;;;;;;;8.67;2.30;;;;;;;7.49;97.29;100131.50;5036197;28;20202;-80
2022/11/25 08:17:11;;;;;;;5.47;2.47;;;;;;;7.50;97.29;100141.03;5033970;28;20219;-80
2022/11/25 08:19:39;;;;;;;5.97;2.67;;;;;;;7.50;97.83;100144.47;5033622;28;20229;-79
2022/11/25 08:22:06;;;;;;;9.80;2.50;;;;;;;7.46;97.30;100150.59;5033570;28;20277;-78
2022/11/25 08:24:32;;;;;;;7.53;2.43;;;;;;;7.40;96.95;100155.84;5034165;28;20252;-80
2022/11/25 08:27:00;;;;;;;6.13;2.97;;;;;;;7.34;97.72;100143.78;5033617;28;20202;-79
2022/11/25 08:29:27;;;;;;;8.47;2.50;;;;;;;7.44;97.54;100146.31;5034625;28;20232;-79
2022/11/25 08:31:53;;;;;;;8.40;2.30;;;;;;;7.49;97.66;100152.28;5032469;28;20229;-79
2022/11/25 08:34:22;;;;;;;4.87;2.70;;;;;;;7.52;98.01;100158.31;5032677;28;20210;-78
2022/11/25 08:36:49;;;;;;;8.90;2.50;;;;;;;7.54;98.00;100159.16;5032879;28;20233;-79
2022/11/25 08:39:16;;;;;;;7.67;2.60;;;;;;;7.44;97.04;100172.28;5033082;28;20209;-78
2022/11/25 08:41:43;;;;;;;6.75;3.20;;;;;;;7.54;96.71;100173.88;5031585;28;20437;-78
2022/11/25 08:44:12;;;;;;;7.93;2.53;;;;;;;7.63;96.65;100172.91;5032606;28;20206;-78
2022/11/25 08:46:38;;;;;;;6.23;2.33;;;;;;;7.68;96.78;100182.38;5032442;28;20198;-77
2022/11/25 08:49:07;;;;;;;5.97;2.60;;;;;;;7.69;96.10;100188.41;5032547;28;20213;-77
2022/11/25 08:51:35;;;;;;;5.60;2.90;;;;;;;7.68;95.44;100215.28;5031003;28;20312;-77
2022/11/25 08:54:03;;;;;;;7.10;2.67;;;;;;;7.71;95.25;100225.63;5032234;28;20441;-78
2022/11/25 08:56:29;;;;;;;6.23;2.50;;;;;;;7.65;94.61;100270.75;5032640;28;20191;-77
2022/11/25 08:58:58;;;;;;;5.97;2.80;;;;;;;7.69;94.56;100266.34;5031512;28;20209;-77
2022/11/25 09:01:27;;;;;;;10.43;2.43;;;;;;;7.79;94.46;100270.63;5029813;28;20325;-78
2022/11/25 09:03:55;;;;;;;4.00;2.20;;;;;;;7.73;94.39;100281.03;5031625;28;20213;-77
2022/11/25 09:06:23;;;;;;;5.33;2.20;;;;;;;7.78;93.49;100279.28;5031289;28;20216;-77
2022/11/25 09:08:50;;;;;;;13.07;2.77;;;;;;;7.80;93.36;100294.84;5031766;28;20705;-78
2022/11/25 09:11:16;;;;;;;6.47;2.47;;;;;;;7.89;93.13;100308.63;5032958;28;20232;-78
2022/11/25 09:13:43;;;;;;;6.27;2.90;;;;;;;7.93;93.49;100315.50;5033057;28;20214;-79
2022/11/25 09:16:09;;;;;;;10.20;3.07;;;;;;;8.00;93.10;100318.88;5034565;28;20217;-79
2022/11/25 09:18:38;;;;;;;4.03;2.60;;;;;;;8.02;92.95;100327.53;5033171;28;20233;-78
2022/11/25 09:21:09;;;;;;;5.47;2.27;;;;;;;8.06;92.66;100331.81;5032528;28;20272;-78
2022/11/25 09:23:37;;;;;;;7.67;2.37;;;;;;;8.08;92.72;100345.66;5031846;28;20680;-78
2022/11/25 09:26:04;;;;;;;4.77;1.90;;;;;;;8.11;92.15;100350.00;5032146;28;20213;-77
2022/11/25 09:28:30;;;;;;;8.23;3.67;;;;;;;8.05;92.03;100355.25;5032713;28;20272;-78
2022/11/25 09:30:57;;;;;;;7.13;2.60;;;;;;;8.01;92.19;100361.34;5031789;28;20237;-78
2022/11/25 09:33:23;;;;;;;5.43;2.60;;;;;;;7.98;91.51;100382.19;5032568;28;20216;-78
2022/11/25 09:35:51;;;;;;;8.77;2.10;;;;;;;7.98;90.98;100387.38;5032728;28;20213;-78
2022/11/25 09:38:17;;;;;;;4.23;2.33;;;;;;;7.90;90.87;100403.03;5032006;28;20233;-77
2022/11/25 09:40:52;;;;;;;4.20;2.23;;;;;;;7.89;91.20;100393.53;5031773;28;20210;-77
2022/11/25 09:46:41;;;;;;;4.30;2.60;;;;;;;7.82;91.33;100403.09;5035839;28;20731;-78
2022/11/25 09:49:26;;;;;;;4.43;2.10;;;;;;;7.76;91.20;100408.34;5036499;28;20202;-79
2022/11/25 09:52:04;;;;;;;7.30;1.97;;;;;;;7.82;92.09;100387.50;5034756;28;20234;-77
2022/11/25 09:54:36;;;;;;;6.13;2.50;;;;;;;7.87;92.15;100377.06;5035894;28;20259;-78
2022/11/25 09:57:18;;;;;;;10.30;2.20;;;;;;;7.94;91.74;100381.34;5035644;28;20232;-78
2022/11/25 09:59:51;;;;;;;4.50;2.00;;;;;;;7.99;91.47;100389.06;5034967;28;20297;-77
2022/11/25 10:02:26;;;;;;;5.70;2.07;;;;;;;8.00;91.92;100389.06;5034457;28;20226;-78
2022/11/25 10:04:59;;;;;;;5.23;2.30;;;;;;;8.03;91.47;100390.81;5034985;28;20244;-77
2022/11/25 10:07:34;;;;;;;7.23;1.93;;;;;;;8.04;91.00;100408.09;5034969;28;20205;-77
2022/11/25 10:10:03;;;;;;;8.17;2.20;;;;;;;8.02;91.36;100394.25;5034570;28;20212;-77
2022/11/25 10:12:33;;;;;;;6.37;2.63;;;;;;;8.05;91.98;100400.31;5033775;28;20249;-77
2022/11/25 10:15:02;;;;;;;6.27;2.30;;;;;;;8.05;91.59;100405.50;5034468;28;20211;-78
2022/11/25 10:17:35;;;;;;;5.80;2.37;;;;;;;7.94;90.65;100413.38;5034587;28;20253;-76
2022/11/25 10:20:07;;;;;;;11.50;2.60;;;;;;;8.04;91.28;100413.31;5034159;28;20660;-77
2022/11/25 10:22:39;;;;;;;5.77;2.27;;;;;;;8.18;91.68;100397.56;5034173;28;20244;-78
2022/11/25 10:25:14;;;;;;;6.07;2.30;;;;;;;8.20;92.18;100380.22;5033703;28;20706;-77
2022/11/25 10:27:46;;;;;;;8.30;2.43;;;;;;;8.27;92.49;100368.91;5034341;28;20854;-78
2022/11/25 10:30:17;;;;;;;5.57;2.00;;;;;;;8.31;93.04;100354.97;5033746;28;20679;-77
2022/11/25 10:32:50;;;;;;;7.50;2.30;;;;;;;8.35;92.79;100356.66;5033193;28;20228;-77
2022/11/25 10:35:27;;;;;;;5.38;2.78;;;;;;;8.32;91.91;100380.09;5034575;28;20433;-78
2022/11/25 10:37:58;;;;;;;5.77;2.50;;;;;;;8.31;91.28;100394.84;5034831;28;20719;-78
2022/11/25 10:40:24;;;;;;;10.50;2.63;;;;;;;8.07;90.54;100439.28;5034394;28;20194;-78
2022/11/25 10:42:51;;;;;;;4.73;2.93;;;;;;;8.16;90.60;100436.59;5034659;28;20217;-79
2022/11/25 10:45:22;;;;;;;8.10;2.30;;;;;;;8.13;90.26;100453.09;5032430;28;20190;-78
2022/11/25 10:48:09;;;;;;;7.80;2.53;;;;;;;8.17;91.00;100456.53;5034642;28;20578;-78
2022/11/25 10:50:47;;;;;;;7.77;2.53;;;;;;;8.24;90.36;100452.97;5034314;28;20198;-78
2022/11/25 10:53:17;;;;;;;6.37;2.90;;;;;;;8.25;90.19;100444.31;5034799;28;20202;-79
2022/11/25 10:55:58;;;;;;;5.00;2.83;;;;;;;8.33;90.62;100445.09;5034963;28;20244;-79
2022/11/25 10:58:30;;;;;;;6.23;2.77;;;;;;;8.37;91.21;100422.53;5032799;28;20225;-78
2022/11/25 11:01:16;;;;;;;5.00;2.27;;;;;;;8.35;92.40;100404.34;5032335;28;20230;-78
2022/11/25 11:03:44;;;;;;;4.07;2.20;;;;;;;8.29;92.74;100386.19;5033410;28;20212;-80
2022/11/25 11:06:31;;;;;;;4.27;2.60;;;;;;;8.29;92.92;100377.53;5035007;28;20199;-80
2022/11/25 11:08:58;;;;;;;5.27;2.33;;;;;;;8.30;93.13;100361.91;5033700;28;20676;-79
2022/11/25 11:11:25;;;;;;;4.27;2.17;;;;;;;8.33;92.70;100371.44;5034065;28;20578;-79
2022/11/25 11:13:59;;;;;;;4.43;2.60;;;;;;;8.35;91.42;100396.53;5031015;28;20202;-79
2022/11/25 11:16:29;;;;;;;6.73;3.17;;;;;;;8.18;91.46;100413.19;5034417;28;20237;-78
2022/11/25 11:18:56;;;;;;;8.47;2.97;;;;;;;8.16;91.96;100418.38;5031858;28;20225;-78
2022/11/25 11:21:25;;;;;;;5.07;2.70;;;;;;;8.27;91.63;100403.56;5033119;28;20255;-78
2022/11/25 11:23:53;;;;;;;4.97;3.20;;;;;;;8.21;91.68;100421.81;5033773;28;20201;-79
2022/11/25 11:26:24;;;;;;;10.10;2.90;;;;;;;8.20;92.17;100407.06;5033956;28;20684;-78
2022/11/25 11:28:59;;;;;;;6.53;2.80;;;;;;;8.10;92.50;100389.84;5032255;28;20194;-79
2022/11/25 11:31:28;;;;;;;3.20;2.50;;;;;;;8.16;93.12;100380.25;5035250;28;20225;-79
2022/11/25 11:34:02;;;;;;;5.33;3.10;;;;;;;8.28;93.40;100368.84;5036348;28;20241;-79
2022/11/25 11:36:42;;;;;;;3.73;2.77;;;;;;;8.32;93.14;100356.69;5035606;28;20210;-79
2022/11/25 11:39:25;;;;;;;5.43;2.80;;;;;;;8.31;93.23;100352.38;5035509;28;20222;-79
2022/11/25 11:42:01;;;;;;;8.07;3.30;;;;;;;8.19;94.08;100337.78;5035215;28;20221;-78
2022/11/25 11:44:40;;;;;;;6.03;3.30;;;;;;;8.07;94.91;100319.72;5035895;28;20221;-78
2022/11/25 11:47:23;;;;;;;6.30;3.97;;;;;;;8.01;95.90;100298.94;5035141;28;20695;-79
2022/11/25 11:50:12;;;;;;;6.87;3.07;;;;;;;8.08;95.98;100283.28;5034219;28;20220;-78